createdAt,value
2018-10-05T00:00:37.995Z,16.60
2018-10-05T00:03:08.138Z,17.27
2018-10-05T00:05:37.282Z,16.00
2018-10-05T00:08:08.621Z,17.87
2018-10-05T00:10:40.811Z,17.07
2018-10-05T00:13:10.980Z,17.27
2018-10-05T00:15:42.246Z,16.37
2018-10-05T00:18:11.757Z,17.00
2018-10-05T00:20:40.493Z,16.90
2018-10-05T00:23:09.786Z,15.10
2018-10-05T00:25:38.627Z,16.80
2018-10-05T00:28:07.177Z,17.37
2018-10-05T00:30:35.969Z,17.30
2018-10-05T00:33:06.741Z,17.47
2018-10-05T00:35:35.411Z,15.97
2018-10-05T00:38:05.189Z,15.40
2018-10-05T00:40:33.876Z,16.80
2018-10-05T00:43:03.762Z,17.30
2018-10-05T00:45:32.873Z,16.57
2018-10-05T00:48:01.401Z,16.77
2018-10-05T00:50:31.782Z,17.10
2018-10-05T00:53:00.713Z,16.23
2018-10-05T00:55:29.585Z,16.77
2018-10-05T00:57:59.343Z,17.43
2018-10-05T01:00:28.739Z,16.40
2018-10-05T01:02:57.324Z,17.60
2018-10-05T01:05:26.220Z,15.20
2018-10-05T01:07:54.815Z,16.60
2018-10-05T01:10:23.424Z,17.50
2018-10-05T01:12:53.020Z,17.10
2018-10-05T01:15:22.041Z,16.67
2018-10-05T01:17:50.534Z,16.90
2018-10-05T01:20:19.122Z,15.17
2018-10-05T01:22:48.221Z,16.20
2018-10-05T01:25:17.258Z,16.90
2018-10-05T01:27:47.052Z,17.60
2018-10-05T01:30:15.926Z,17.53
2018-10-05T01:32:44.651Z,16.60
2018-10-05T01:35:15.582Z,17.37
2018-10-05T01:37:45.146Z,17.87
2018-10-05T01:40:14.400Z,16.43
2018-10-05T01:42:43.368Z,17.30
2018-10-05T01:45:12.430Z,18.00
2018-10-05T01:47:42.729Z,17.80
2018-10-05T01:50:11.855Z,17.80
2018-10-05T01:52:40.595Z,18.93
2018-10-05T01:55:09.206Z,20.00
2018-10-05T01:57:38.666Z,16.17
2018-10-05T02:00:07.936Z,17.00
2018-10-05T02:02:36.589Z,18.23
2018-10-05T02:05:05.167Z,19.10
2018-10-05T02:07:33.790Z,19.00
2018-10-05T02:10:02.244Z,18.20
2018-10-05T02:12:31.872Z,18.87
2018-10-05T02:15:00.343Z,18.17
2018-10-05T02:17:28.843Z,18.07
2018-10-05T02:19:57.249Z,17.83
2018-10-05T02:22:25.761Z,17.30
2018-10-05T02:24:54.212Z,19.03
2018-10-05T02:27:23.103Z,17.50
2018-10-05T02:29:51.723Z,19.47
2018-10-05T02:32:20.361Z,18.90
2018-10-05T02:34:48.843Z,18.17
2018-10-05T02:37:17.298Z,16.40
2018-10-05T02:39:47.005Z,18.67
2018-10-05T02:42:15.398Z,16.67
2018-10-05T02:44:45.792Z,17.40
2018-10-05T02:47:14.180Z,17.57
2018-10-05T02:49:42.719Z,17.87
2018-10-05T02:52:11.146Z,18.57
2018-10-05T02:54:39.868Z,17.00
2018-10-05T02:57:08.412Z,16.43
2018-10-05T02:59:37.738Z,17.87
2018-10-05T03:02:15.537Z,17.33
2018-10-05T03:04:43.987Z,19.23
2018-10-05T03:07:12.859Z,16.70
2018-10-05T03:09:41.418Z,18.43
2018-10-05T03:12:10.105Z,18.20
2018-10-05T03:14:38.595Z,19.17
2018-10-05T03:17:07.642Z,18.80
2018-10-05T03:19:36.468Z,20.30
2018-10-05T03:22:05.188Z,20.50
2018-10-05T03:24:33.694Z,20.20
2018-10-05T03:27:02.443Z,18.10
2018-10-05T03:29:31.133Z,19.67
2018-10-05T03:32:00.178Z,18.33
2018-10-05T03:34:28.660Z,17.67
2018-10-05T03:36:57.115Z,18.30
2018-10-05T03:39:26.633Z,18.50
2018-10-05T03:41:56.704Z,17.80
2018-10-05T03:44:25.250Z,18.97
2018-10-05T03:46:53.987Z,20.23
2018-10-05T03:49:22.635Z,19.70
2018-10-05T03:51:51.050Z,19.70
2018-10-05T03:54:20.160Z,18.90
2018-10-05T03:56:49.061Z,17.40
2018-10-05T03:59:18.083Z,17.17
2018-10-05T04:01:46.765Z,19.20
2018-10-05T04:04:15.311Z,17.73
2018-10-05T04:06:44.002Z,18.33
2018-10-05T04:09:12.834Z,18.60
2018-10-05T04:11:41.372Z,18.20
2018-10-05T04:14:11.106Z,19.27
2018-10-05T04:16:39.725Z,18.40
2018-10-05T04:19:09.510Z,17.80
2018-10-05T04:21:37.992Z,17.70
2018-10-05T04:24:06.868Z,18.60
2018-10-05T04:26:35.426Z,18.70
2018-10-05T04:29:03.937Z,17.57
2018-10-05T04:31:32.974Z,16.90
2018-10-05T04:34:01.734Z,18.33
2018-10-05T04:36:30.571Z,18.83
2018-10-05T04:39:01.002Z,17.20
2018-10-05T04:41:29.557Z,17.50
2018-10-05T04:43:58.096Z,17.77
2018-10-05T04:46:26.961Z,17.30
2018-10-05T04:48:55.400Z,16.60
2018-10-05T04:51:24.137Z,18.87
2018-10-05T04:53:52.784Z,19.17
2018-10-05T04:56:21.388Z,18.03
2018-10-05T04:58:50.069Z,20.23
2018-10-05T05:01:18.637Z,20.03
2018-10-05T05:03:47.163Z,19.17
2018-10-05T05:06:15.596Z,18.10
2018-10-05T05:08:44.132Z,18.63
2018-10-05T05:11:12.703Z,19.43
2018-10-05T05:13:41.143Z,21.57
2018-10-05T05:16:09.814Z,20.27
2018-10-05T05:18:38.433Z,21.40
2018-10-05T05:21:07.150Z,20.50
2018-10-05T05:23:35.582Z,20.40
2018-10-05T05:26:04.062Z,20.47
2018-10-05T05:28:32.822Z,21.20
2018-10-05T05:31:05.636Z,21.63
2018-10-05T05:33:34.372Z,21.27
2018-10-05T05:36:02.863Z,19.87
2018-10-05T05:38:34.281Z,20.20
2018-10-05T05:41:02.861Z,20.60
2018-10-05T05:43:31.476Z,22.67
2018-10-05T05:46:00.161Z,22.00
2018-10-05T05:48:28.856Z,19.40
2018-10-05T05:50:59.095Z,20.80
2018-10-05T05:53:28.315Z,19.23
2018-10-05T05:55:57.786Z,18.80
2018-10-05T05:58:26.177Z,21.57
2018-10-05T06:00:54.709Z,18.50
2018-10-05T06:03:24.061Z,18.77
2018-10-05T06:05:52.784Z,20.57
2018-10-05T06:08:21.408Z,19.07
2018-10-05T06:10:50.066Z,18.70
2018-10-05T06:13:18.760Z,15.80
2018-10-05T06:15:47.382Z,14.17
2018-10-05T06:18:16.232Z,15.10
2018-10-05T06:20:48.643Z,11.43
2018-10-05T06:23:17.229Z,12.13
2018-10-05T06:25:46.163Z,11.43
2018-10-05T06:28:14.765Z,10.93
2018-10-05T06:30:43.670Z,12.43
2018-10-05T06:33:13.018Z,9.80
2018-10-05T06:35:41.590Z,11.03
2018-10-05T06:38:10.353Z,11.23
2018-10-05T06:40:38.912Z,10.23
2018-10-05T06:43:07.997Z,9.60
2018-10-05T06:45:37.403Z,10.53
2018-10-05T06:48:06.382Z,10.77
2018-10-05T06:50:35.085Z,11.80
2018-10-05T06:53:03.792Z,10.27
2018-10-05T06:55:32.325Z,12.40
2018-10-05T06:58:00.895Z,10.07
2018-10-05T07:00:29.475Z,9.70
2018-10-05T07:02:58.587Z,9.07
2018-10-05T07:05:27.069Z,7.97
2018-10-05T07:07:55.898Z,8.50
2018-10-05T07:10:27.765Z,8.10
2018-10-05T07:13:01.042Z,7.20
2018-10-05T07:15:30.801Z,7.50
2018-10-05T07:18:03.211Z,7.73
2018-10-05T07:20:34.818Z,6.80
2018-10-05T07:23:05.157Z,6.77
2018-10-05T07:25:34.775Z,6.90
2018-10-05T07:28:06.397Z,6.97
2018-10-05T07:30:40.444Z,6.70
2018-10-05T07:33:10.752Z,6.97
2018-10-05T07:35:43.246Z,6.23
2018-10-05T07:38:13.914Z,6.27
2018-10-05T07:40:47.313Z,6.87
2018-10-05T07:43:17.585Z,6.67
2018-10-05T07:45:53.683Z,5.63
2018-10-05T07:48:25.796Z,5.73
2018-10-05T07:51:07.779Z,6.57
2018-10-05T07:53:42.731Z,6.10
2018-10-05T07:56:15.860Z,5.93
2018-10-05T07:58:45.167Z,6.80
2018-10-05T08:01:21.053Z,6.57
2018-10-05T08:03:56.154Z,6.37
2018-10-05T08:06:29.084Z,7.13
2018-10-05T08:09:06.877Z,6.00
2018-10-05T08:11:40.010Z,6.33
2018-10-05T08:14:12.087Z,5.17
2018-10-05T08:16:44.954Z,5.43
2018-10-05T08:19:14.526Z,5.70
2018-10-05T08:21:47.984Z,6.50
2018-10-05T08:24:29.827Z,5.43
2018-10-05T08:27:03.074Z,5.03
2018-10-05T08:29:33.616Z,5.40
2018-10-05T08:32:04.654Z,5.70
2018-10-05T08:34:38.305Z,5.77
2018-10-05T08:37:13.795Z,6.10
2018-10-05T08:39:48.103Z,5.17
2018-10-05T08:42:19.621Z,4.67
2018-10-05T08:44:51.683Z,4.67
2018-10-05T08:47:22.701Z,4.73
2018-10-05T08:49:56.630Z,5.03
2018-10-05T08:52:31.496Z,4.40
2018-10-05T08:55:09.371Z,5.10
2018-10-05T08:57:41.776Z,4.77
2018-10-05T09:00:16.569Z,4.70
2018-10-05T09:02:47.169Z,5.00
2018-10-05T09:05:22.501Z,4.60
2018-10-05T09:07:54.459Z,4.27
2018-10-05T09:10:27.196Z,4.67
2018-10-05T09:13:01.758Z,4.27
2018-10-05T09:15:34.340Z,4.87
2018-10-05T09:18:07.507Z,4.60
2018-10-05T09:20:38.778Z,4.50
2018-10-05T09:23:12.721Z,4.30
2018-10-05T09:25:43.540Z,3.60
2018-10-05T09:28:17.144Z,3.43
2018-10-05T09:30:51.301Z,4.27
2018-10-05T09:33:22.420Z,4.30
2018-10-05T09:35:57.584Z,3.60
2018-10-05T09:38:28.763Z,3.53
2018-10-05T09:41:03.996Z,5.00
2018-10-05T09:43:37.576Z,3.77
2018-10-05T09:46:12.206Z,3.47
2018-10-05T09:48:42.586Z,3.40
2018-10-05T09:51:12.879Z,3.83
2018-10-05T09:53:41.318Z,3.13
2018-10-05T09:56:10.625Z,3.43
2018-10-05T09:58:40.176Z,3.30
2018-10-05T10:01:13.929Z,3.30
2018-10-05T10:03:42.929Z,2.90
2018-10-05T10:06:12.402Z,3.20
2018-10-05T10:08:41.559Z,3.33
2018-10-05T10:11:11.220Z,3.87
2018-10-05T10:13:41.215Z,4.20
2018-10-05T10:16:12.980Z,3.90
2018-10-05T10:18:42.361Z,3.30
2018-10-05T10:21:11.405Z,3.07
2018-10-05T10:23:40.211Z,3.63
2018-10-05T10:26:08.994Z,3.73
2018-10-05T10:28:38.192Z,3.00
2018-10-05T10:31:08.544Z,3.00
2018-10-05T10:33:37.395Z,2.60
2018-10-05T10:36:07.543Z,3.00
2018-10-05T10:38:40.749Z,2.90
2018-10-05T10:41:10.420Z,2.60
2018-10-05T10:43:41.304Z,3.00
2018-10-05T10:46:11.044Z,3.03
2018-10-05T10:48:41.034Z,3.00
2018-10-05T10:51:12.957Z,3.40
2018-10-05T10:53:44.186Z,2.90
2018-10-05T10:56:15.301Z,3.20
2018-10-05T10:58:43.993Z,2.50
2018-10-05T11:01:13.721Z,2.83
2018-10-05T11:03:42.888Z,2.63
2018-10-05T11:06:13.043Z,2.40
2018-10-05T11:08:43.514Z,2.57
2018-10-05T11:11:13.299Z,2.53
2018-10-05T11:13:43.972Z,2.93
2018-10-05T11:16:12.803Z,2.30
2018-10-05T11:18:56.542Z,1.90
2018-10-05T11:21:28.735Z,2.57
2018-10-05T11:24:01.434Z,2.30
2018-10-05T11:26:31.861Z,2.60
2018-10-05T11:29:01.538Z,2.00
2018-10-05T11:31:31.623Z,1.97
2018-10-05T11:34:03.987Z,1.80
2018-10-05T11:36:33.116Z,1.60
2018-10-05T11:39:04.318Z,1.73
2018-10-05T11:41:38.225Z,2.07
2018-10-05T11:44:09.928Z,2.03
2018-10-05T11:46:39.063Z,1.70
2018-10-05T11:49:15.373Z,1.70
2018-10-05T11:51:47.419Z,1.87
2018-10-05T11:54:16.793Z,2.67
2018-10-05T11:56:53.553Z,1.57
2018-10-05T11:59:25.816Z,1.30
2018-10-05T12:01:58.349Z,1.63
2018-10-05T12:04:40.912Z,1.17
2018-10-05T12:09:58.321Z,1.70
2018-10-05T12:12:29.280Z,1.67
2018-10-05T12:15:06.378Z,1.50
2018-10-05T12:17:37.580Z,2.40
2018-10-05T12:20:16.104Z,1.70
2018-10-05T12:22:45.537Z,1.83
2018-10-05T12:25:14.800Z,1.73
2018-10-05T12:28:06.708Z,1.93
2018-10-05T12:30:37.514Z,2.13
2018-10-05T12:33:06.876Z,1.40
2018-10-05T12:35:38.737Z,1.93
2018-10-05T12:38:08.798Z,2.27
2018-10-05T12:40:37.487Z,1.80
2018-10-05T12:43:06.116Z,1.70
2018-10-05T12:45:36.862Z,1.97
2018-10-05T12:48:05.636Z,2.63
2018-10-05T12:50:34.335Z,1.20
2018-10-05T12:53:04.298Z,1.57
2018-10-05T12:55:32.837Z,1.60
2018-10-05T12:58:06.486Z,1.50
2018-10-05T13:00:35.048Z,2.10
2018-10-05T13:03:09.763Z,1.77
2018-10-05T13:05:39.488Z,1.70
2018-10-05T13:08:09.150Z,1.60
2018-10-05T13:10:38.208Z,2.03
2018-10-05T13:13:14.408Z,1.67
2018-10-05T13:15:45.432Z,2.17
2018-10-05T13:18:15.079Z,1.17
2018-10-05T13:20:48.135Z,1.70
2018-10-05T13:23:47.375Z,1.93
2018-10-05T13:26:17.054Z,1.67
2018-10-05T13:28:45.646Z,1.47
2018-10-05T13:31:15.520Z,1.80
2018-10-05T13:33:44.333Z,1.33
2018-10-05T13:36:12.856Z,2.17
2018-10-05T13:38:41.433Z,0.90
2018-10-05T13:41:11.365Z,1.40
2018-10-05T13:43:40.932Z,1.63
2018-10-05T13:46:09.811Z,2.70
2018-10-05T13:48:38.469Z,1.30
2018-10-05T13:51:08.083Z,2.10
2018-10-05T13:53:36.749Z,1.53
2018-10-05T13:56:05.506Z,1.60
2018-10-05T13:58:34.965Z,1.10
2018-10-05T14:01:03.373Z,1.37
2018-10-05T14:03:33.434Z,1.60
2018-10-05T14:08:43.482Z,1.47
2018-10-05T14:11:12.780Z,1.87
2018-10-05T14:13:41.236Z,1.30
2018-10-05T14:16:09.625Z,1.87
2018-10-05T14:18:38.071Z,1.83
2018-10-05T14:21:06.694Z,1.60
2018-10-05T14:23:35.121Z,1.40
2018-10-05T14:26:03.721Z,1.77
2018-10-05T14:28:32.290Z,1.50
2018-10-05T14:31:01.667Z,1.53
2018-10-05T14:33:30.115Z,1.80
2018-10-05T14:35:58.599Z,1.50
2018-10-05T14:38:27.019Z,1.53
2018-10-05T14:40:55.758Z,1.30
2018-10-05T14:43:24.600Z,1.60
2018-10-05T14:45:53.365Z,2.00
2018-10-05T14:48:21.746Z,1.87
2018-10-05T14:50:50.318Z,1.60
2018-10-05T14:53:18.828Z,1.37
2018-10-05T14:55:47.406Z,1.87
2018-10-05T14:58:15.853Z,1.30
2018-10-05T15:00:44.948Z,1.30
2018-10-05T15:03:16.246Z,1.53
2018-10-05T15:05:44.714Z,1.50
2018-10-05T15:08:14.786Z,1.47
2018-10-05T15:10:48.653Z,1.40
2018-10-05T15:13:19.392Z,1.47
2018-10-05T15:15:49.704Z,1.60
2018-10-05T15:18:23.100Z,1.60
2018-10-05T15:20:51.940Z,1.10
2018-10-05T15:23:20.655Z,1.70
2018-10-05T15:25:50.448Z,1.07
2018-10-05T15:28:21.658Z,1.30
2018-10-05T15:30:53.227Z,1.00
2018-10-05T15:33:22.944Z,1.37
2018-10-05T15:35:53.346Z,1.40
2018-10-05T15:38:23.756Z,1.27
2018-10-05T15:40:54.882Z,1.13
2018-10-05T15:43:25.364Z,1.50
2018-10-05T15:46:08.536Z,1.10
2018-10-05T15:48:39.888Z,1.20
2018-10-05T15:51:24.568Z,1.03
2018-10-05T15:53:58.206Z,2.10
2018-10-05T15:56:27.105Z,1.83
2018-10-05T15:58:55.639Z,1.23
2018-10-05T16:01:29.379Z,1.43
2018-10-05T16:04:01.821Z,1.20
2018-10-05T16:06:31.098Z,1.40
2018-10-05T16:09:06.680Z,1.20
2018-10-05T16:11:35.276Z,1.70
2018-10-05T16:14:04.656Z,1.47
2018-10-05T16:16:33.199Z,1.80
2018-10-05T16:19:03.768Z,1.50
2018-10-05T16:21:32.874Z,2.07
2018-10-05T16:24:03.852Z,2.27
2018-10-05T16:26:35.010Z,2.20
2018-10-05T16:29:07.841Z,2.00
2018-10-05T16:31:51.940Z,1.73
2018-10-05T16:34:21.798Z,1.80
2018-10-05T16:36:50.482Z,1.70
2018-10-05T16:39:25.246Z,2.10
2018-10-05T16:42:00.108Z,1.77
2018-10-05T16:44:28.830Z,2.10
2018-10-05T16:46:58.925Z,2.83
2018-10-05T16:49:27.357Z,2.63
2018-10-05T16:52:17.301Z,2.20
2018-10-05T16:54:53.752Z,2.30
2018-10-05T16:57:24.138Z,2.23
2018-10-05T16:59:54.792Z,2.50
2018-10-05T17:02:27.025Z,2.27
2018-10-05T17:05:01.658Z,2.80
2018-10-05T17:07:33.692Z,2.73
2018-10-05T17:10:12.626Z,3.20
2018-10-05T17:12:49.389Z,3.00
2018-10-05T17:15:19.901Z,2.73
2018-10-05T17:17:54.041Z,3.33
2018-10-05T17:20:36.338Z,2.97
2018-10-05T17:23:10.106Z,2.63
2018-10-05T17:25:41.179Z,3.83
2018-10-05T17:28:10.123Z,3.10
2018-10-05T17:30:40.295Z,2.80
2018-10-05T17:33:10.619Z,3.13
2018-10-05T17:35:42.692Z,2.70
2018-10-05T17:38:11.996Z,3.30
2018-10-05T17:40:40.475Z,3.30
2018-10-05T17:43:08.960Z,2.60
2018-10-05T17:45:37.537Z,3.20
2018-10-05T17:48:06.484Z,2.57
2018-10-05T17:50:36.494Z,3.47
2018-10-05T17:53:06.272Z,2.63
2018-10-05T17:55:35.130Z,3.47
2018-10-05T17:58:06.029Z,2.90
2018-10-05T18:00:43.902Z,3.07
2018-10-05T18:03:40.989Z,4.47
2018-10-05T18:06:14.872Z,4.20
2018-10-05T18:08:43.474Z,4.70
2018-10-05T18:11:12.002Z,4.00
2018-10-05T18:13:40.893Z,3.80
2018-10-05T18:16:09.407Z,4.57
2018-10-05T18:18:39.082Z,5.17
2018-10-05T18:21:08.590Z,3.60
2018-10-05T18:23:40.905Z,2.73
2018-10-05T18:26:09.510Z,2.93
2018-10-05T18:28:38.272Z,3.43
2018-10-05T18:31:07.561Z,3.10
2018-10-05T18:33:35.950Z,2.43
2018-10-05T18:36:04.573Z,2.30
2018-10-05T18:38:33.930Z,2.67
2018-10-05T18:41:03.046Z,2.97
2018-10-05T18:43:32.374Z,2.50
2018-10-05T18:46:02.152Z,2.80
2018-10-05T18:48:31.185Z,2.40
2018-10-05T18:51:00.452Z,2.70
2018-10-05T18:53:29.776Z,2.63
2018-10-05T18:56:07.328Z,2.70
2018-10-05T18:58:41.642Z,2.90
2018-10-05T19:01:10.098Z,2.90
2018-10-05T19:03:39.191Z,3.30
2018-10-05T19:06:07.746Z,3.60
2018-10-05T19:08:37.269Z,3.17
2018-10-05T19:11:05.884Z,3.40
2018-10-05T19:13:38.569Z,3.53
2018-10-05T19:16:08.309Z,3.97
2018-10-05T19:18:36.937Z,3.03
2018-10-05T19:21:06.897Z,3.90
2018-10-05T19:23:36.049Z,4.10
2018-10-05T19:26:04.666Z,3.77
2018-10-05T19:28:33.259Z,4.40
2018-10-05T19:31:01.899Z,3.93
2018-10-05T19:33:30.362Z,3.47
2018-10-05T19:35:59.372Z,3.80
2018-10-05T19:44:33.700Z,5.07
2018-10-05T19:47:02.122Z,4.20
2018-10-05T19:49:30.879Z,5.57
2018-10-05T19:51:59.313Z,4.40
2018-10-05T19:54:28.284Z,4.77
2018-10-05T19:56:58.746Z,4.33
2018-10-05T19:59:27.363Z,3.50
2018-10-05T20:01:55.976Z,3.57
2018-10-05T20:04:25.441Z,4.93
2018-10-05T20:06:54.248Z,3.73
2018-10-05T20:09:22.979Z,4.87
2018-10-05T20:11:53.359Z,4.10
2018-10-05T20:14:22.101Z,4.37
2018-10-05T20:16:56.751Z,4.37
2018-10-05T20:19:25.363Z,3.53
2018-10-05T20:21:53.955Z,4.93
2018-10-05T20:24:25.646Z,4.07
2018-10-05T20:26:54.026Z,5.10
2018-10-05T20:29:22.561Z,5.73
2018-10-05T20:31:51.089Z,5.97
2018-10-05T20:34:22.251Z,6.50
2018-10-05T20:39:34.954Z,5.13
2018-10-05T20:42:05.908Z,5.60
2018-10-05T20:44:36.395Z,6.30
2018-10-05T20:47:06.660Z,5.80
2018-10-05T20:49:35.519Z,5.50
2018-10-05T20:52:07.219Z,6.80
2018-10-05T20:54:36.170Z,6.07
2018-10-05T20:57:04.649Z,5.73
2018-10-05T20:59:33.111Z,5.53
2018-10-05T21:02:01.676Z,5.90
2018-10-05T21:04:30.107Z,5.30
2018-10-05T21:06:58.753Z,6.17
2018-10-05T21:09:27.182Z,6.30
2018-10-05T21:11:55.609Z,5.50
2018-10-05T21:14:24.025Z,6.40
2018-10-05T21:16:52.495Z,6.20
2018-10-05T21:19:20.832Z,6.87
2018-10-05T21:21:49.238Z,7.40
2018-10-05T21:24:17.693Z,6.30
2018-10-05T21:26:46.392Z,6.77
2018-10-05T21:29:14.839Z,7.23
2018-10-05T21:31:44.473Z,7.53
2018-10-05T21:34:13.107Z,7.47
2018-10-05T21:36:41.604Z,8.93
2018-10-05T21:39:11.397Z,7.80
2018-10-05T21:41:40.920Z,7.67
2018-10-05T21:44:09.307Z,8.37
2018-10-05T21:46:38.621Z,8.00
2018-10-05T21:49:07.348Z,7.67
2018-10-05T21:51:35.863Z,8.40
2018-10-05T21:54:04.417Z,8.10
2018-10-05T21:56:33.001Z,8.77
2018-10-05T21:59:01.859Z,8.27
2018-10-05T22:01:30.473Z,8.97
2018-10-05T22:03:58.948Z,9.17
2018-10-05T22:06:27.372Z,8.30
2018-10-05T22:08:55.816Z,9.20
2018-10-05T22:11:24.229Z,9.03
2018-10-05T22:13:53.481Z,8.30
2018-10-05T22:16:21.916Z,7.73
2018-10-05T22:18:51.699Z,9.73
2018-10-05T22:21:20.022Z,7.80
2018-10-05T22:23:48.391Z,7.30
2018-10-05T22:26:17.673Z,8.13
2018-10-05T22:28:46.144Z,8.63
2018-10-05T22:31:14.607Z,8.23
2018-10-05T22:33:43.033Z,9.53
2018-10-05T22:36:11.790Z,8.50
2018-10-05T22:38:40.239Z,8.27
2018-10-05T22:41:08.836Z,9.47
2018-10-05T22:43:37.320Z,10.40
2018-10-05T22:46:06.704Z,9.77
2018-10-05T22:48:36.003Z,8.63
2018-10-05T22:51:06.873Z,9.87
2018-10-05T22:53:35.672Z,9.40
2018-10-05T22:56:05.231Z,8.93
2018-10-05T22:58:34.163Z,10.10
2018-10-05T23:01:02.740Z,10.13
2018-10-05T23:03:31.886Z,11.00
2018-10-05T23:06:00.452Z,10.90
2018-10-05T23:08:28.997Z,10.50
2018-10-05T23:10:57.339Z,10.10
2018-10-05T23:13:25.754Z,12.10
2018-10-05T23:15:54.316Z,10.83
2018-10-05T23:18:24.622Z,10.17
2018-10-05T23:20:53.193Z,10.87
2018-10-05T23:23:23.275Z,11.03
2018-10-05T23:25:51.700Z,13.17
2018-10-05T23:28:20.217Z,12.50
2018-10-05T23:30:48.670Z,12.43
2018-10-05T23:33:17.188Z,12.30
2018-10-05T23:35:45.747Z,13.07
2018-10-05T23:38:14.174Z,15.13
2018-10-05T23:40:42.849Z,15.37
2018-10-05T23:43:11.509Z,15.20
2018-10-05T23:45:39.860Z,17.67
2018-10-05T23:48:08.395Z,17.83
2018-10-05T23:50:36.819Z,17.00
2018-10-05T23:53:05.155Z,15.53
2018-10-05T23:55:33.882Z,15.87
2018-10-05T23:58:02.407Z,15.67
